sensor_id;sensor_type;location;lat;lon;timestamp;P1;durP1;ratioP1;P2;durP2;ratioP2
67352;SDS011;54238;52.278;21.056;2022-09-29T00:01:38;15.10;;;10.10;;
67352;SDS011;54238;52.278;21.056;2022-09-29T00:04:05;14.80;;;10.20;;
67352;SDS011;54238;52.278;21.056;2022-09-29T00:06:32;16.40;;;9.80;;
67352;SDS011;54238;52.278;21.056;2022-09-29T00:09:02;19.00;;;11.10;;
67352;SDS011;54238;52.278;21.056;2022-09-29T00:11:31;15.90;;;10.50;;
67352;SDS011;54238;52.278;21.056;2022-09-29T00:14:01;15.90;;;10.70;;
67352;SDS011;54238;52.278;21.056;2022-09-29T00:16:28;17.90;;;11.20;;
67352;SDS011;54238;52.278;21.056;2022-09-29T00:18:57;14.10;;;8.60;;
67352;SDS011;54238;52.278;21.056;2022-09-29T00:21:25;16.30;;;9.80;;
67352;SDS011;54238;52.278;21.056;2022-09-29T00:23:59;16.50;;;10.20;;
67352;SDS011;54238;52.278;21.056;2022-09-29T00:28:58;14.20;;;8.60;;
67352;SDS011;54238;52.278;21.056;2022-09-29T00:31:31;13.70;;;8.70;;
67352;SDS011;54238;52.278;21.056;2022-09-29T00:33:59;14.70;;;8.60;;
67352;SDS011;54238;52.278;21.056;2022-09-29T00:36:28;16.30;;;9.10;;
67352;SDS011;54238;52.278;21.056;2022-09-29T00:38:58;13.10;;;8.20;;
67352;SDS011;54238;52.278;21.056;2022-09-29T00:41:32;12.10;;;8.40;;
67352;SDS011;54238;52.278;21.056;2022-09-29T00:44:58;16.10;;;8.90;;
67352;SDS011;54238;52.278;21.056;2022-09-29T00:47:26;13.20;;;8.90;;
67352;SDS011;54238;52.278;21.056;2022-09-29T00:50:04;9.80;;;7.00;;
67352;SDS011;54238;52.278;21.056;2022-09-29T00:52:41;9.40;;;6.90;;
67352;SDS011;54238;52.278;21.056;2022-09-29T00:55:23;12.40;;;8.80;;
67352;SDS011;54238;52.278;21.056;2022-09-29T00:58:12;12.20;;;8.30;;
67352;SDS011;54238;52.278;21.056;2022-09-29T01:00:59;8.30;;;6.60;;
67352;SDS011;54238;52.278;21.056;2022-09-29T01:03:35;11.40;;;7.90;;
67352;SDS011;54238;52.278;21.056;2022-09-29T01:06:12;12.80;;;8.80;;
67352;SDS011;54238;52.278;21.056;2022-09-29T01:08:46;9.70;;;6.70;;
67352;SDS011;54238;52.278;21.056;2022-09-29T01:11:28;9.80;;;7.30;;
67352;SDS011;54238;52.278;21.056;2022-09-29T01:14:06;8.60;;;6.50;;
67352;SDS011;54238;52.278;21.056;2022-09-29T01:16:36;12.00;;;8.10;;
67352;SDS011;54238;52.278;21.056;2022-09-29T01:19:20;10.20;;;7.40;;
67352;SDS011;54238;52.278;21.056;2022-09-29T01:22:13;9.00;;;6.70;;
67352;SDS011;54238;52.278;21.056;2022-09-29T01:40:09;10.40;;;7.80;;
67352;SDS011;54238;52.278;21.056;2022-09-29T01:42:59;15.70;;;8.40;;
67352;SDS011;54238;52.278;21.056;2022-09-29T01:45:33;8.20;;;6.30;;
67352;SDS011;54238;52.278;21.056;2022-09-29T01:48:12;11.40;;;7.40;;
67352;SDS011;54238;52.278;21.056;2022-09-29T01:50:47;13.00;;;7.70;;
67352;SDS011;54238;52.278;21.056;2022-09-29T01:53:29;11.00;;;7.50;;
67352;SDS011;54238;52.278;21.056;2022-09-29T01:56:08;8.20;;;6.00;;
67352;SDS011;54238;52.278;21.056;2022-09-29T01:58:51;12.90;;;8.60;;
67352;SDS011;54238;52.278;21.056;2022-09-29T02:01:26;12.30;;;8.50;;
67352;SDS011;54238;52.278;21.056;2022-09-29T02:04:07;12.00;;;7.40;;
67352;SDS011;54238;52.278;21.056;2022-09-29T02:08:00;13.40;;;9.10;;
67352;SDS011;54238;52.278;21.056;2022-09-29T02:12:49;11.50;;;8.60;;
67352;SDS011;54238;52.278;21.056;2022-09-29T02:15:27;11.10;;;7.40;;
67352;SDS011;54238;52.278;21.056;2022-09-29T02:18:02;14.40;;;8.80;;
67352;SDS011;54238;52.278;21.056;2022-09-29T02:20:37;9.30;;;6.50;;
67352;SDS011;54238;52.278;21.056;2022-09-29T02:23:09;14.60;;;8.20;;
67352;SDS011;54238;52.278;21.056;2022-09-29T02:25:42;11.80;;;7.70;;
67352;SDS011;54238;52.278;21.056;2022-09-29T02:28:12;10.90;;;7.90;;
67352;SDS011;54238;52.278;21.056;2022-09-29T02:30:41;13.00;;;8.30;;
67352;SDS011;54238;52.278;21.056;2022-09-29T02:33:24;11.90;;;7.90;;
67352;SDS011;54238;52.278;21.056;2022-09-29T02:39:00;13.50;;;8.80;;
67352;SDS011;54238;52.278;21.056;2022-09-29T02:50:30;12.10;;;8.60;;
67352;SDS011;54238;52.278;21.056;2022-09-29T02:59:20;16.80;;;8.70;;
67352;SDS011;54238;52.278;21.056;2022-09-29T03:01:56;17.10;;;9.30;;
67352;SDS011;54238;52.278;21.056;2022-09-29T03:04:25;16.80;;;9.50;;
67352;SDS011;54238;52.278;21.056;2022-09-29T03:06:56;11.00;;;7.30;;
67352;SDS011;54238;52.278;21.056;2022-09-29T03:09:26;15.00;;;9.80;;
67352;SDS011;54238;52.278;21.056;2022-09-29T03:11:54;14.90;;;9.70;;
67352;SDS011;54238;52.278;21.056;2022-09-29T03:14:21;16.50;;;10.30;;
67352;SDS011;54238;52.278;21.056;2022-09-29T03:16:48;15.50;;;9.90;;
67352;SDS011;54238;52.278;21.056;2022-09-29T03:19:15;17.00;;;10.50;;
67352;SDS011;54238;52.278;21.056;2022-09-29T03:21:44;11.80;;;9.90;;
67352;SDS011;54238;52.278;21.056;2022-09-29T03:24:11;16.60;;;11.00;;
67352;SDS011;54238;52.278;21.056;2022-09-29T03:26:40;12.10;;;8.50;;
67352;SDS011;54238;52.278;21.056;2022-09-29T03:29:07;15.20;;;10.80;;
67352;SDS011;54238;52.278;21.056;2022-09-29T03:31:39;13.50;;;11.20;;
67352;SDS011;54238;52.278;21.056;2022-09-29T03:34:13;13.50;;;9.60;;
67352;SDS011;54238;52.278;21.056;2022-09-29T03:36:44;9.40;;;7.60;;
67352;SDS011;54238;52.278;21.056;2022-09-29T03:39:18;10.50;;;8.30;;
67352;SDS011;54238;52.278;21.056;2022-09-29T03:41:52;8.00;;;7.20;;
67352;SDS011;54238;52.278;21.056;2022-09-29T03:46:54;13.00;;;9.20;;
67352;SDS011;54238;52.278;21.056;2022-09-29T03:49:25;11.60;;;8.80;;
67352;SDS011;54238;52.278;21.056;2022-09-29T03:51:55;17.50;;;9.80;;
67352;SDS011;54238;52.278;21.056;2022-09-29T03:54:21;12.00;;;9.80;;
67352;SDS011;54238;52.278;21.056;2022-09-29T03:56:51;10.90;;;8.60;;
67352;SDS011;54238;52.278;21.056;2022-09-29T03:59:19;11.30;;;9.10;;
67352;SDS011;54238;52.278;21.056;2022-09-29T04:01:48;11.60;;;9.30;;
67352;SDS011;54238;52.278;21.056;2022-09-29T04:04:15;13.10;;;10.30;;
67352;SDS011;54238;52.278;21.056;2022-09-29T04:06:52;9.70;;;7.70;;
67352;SDS011;54238;52.278;21.056;2022-09-29T04:09:21;8.40;;;7.00;;
67352;SDS011;54238;52.278;21.056;2022-09-29T04:11:48;13.20;;;9.80;;
67352;SDS011;54238;52.278;21.056;2022-09-29T04:14:18;12.60;;;8.70;;
67352;SDS011;54238;52.278;21.056;2022-09-29T04:16:44;11.60;;;9.20;;
67352;SDS011;54238;52.278;21.056;2022-09-29T04:19:11;14.00;;;10.20;;
67352;SDS011;54238;52.278;21.056;2022-09-29T04:21:39;10.20;;;8.90;;
67352;SDS011;54238;52.278;21.056;2022-09-29T04:24:08;14.40;;;10.40;;
67352;SDS011;54238;52.278;21.056;2022-09-29T04:26:37;13.20;;;10.80;;
67352;SDS011;54238;52.278;21.056;2022-09-29T04:29:09;12.50;;;10.10;;
67352;SDS011;54238;52.278;21.056;2022-09-29T04:31:38;13.70;;;9.50;;
67352;SDS011;54238;52.278;21.056;2022-09-29T04:34:05;10.70;;;7.70;;
67352;SDS011;54238;52.278;21.056;2022-09-29T04:36:35;14.50;;;9.60;;
67352;SDS011;54238;52.278;21.056;2022-09-29T04:39:02;13.90;;;10.40;;
67352;SDS011;54238;52.278;21.056;2022-09-29T04:41:29;14.80;;;11.60;;
67352;SDS011;54238;52.278;21.056;2022-09-29T04:44:00;10.90;;;8.50;;
67352;SDS011;54238;52.278;21.056;2022-09-29T04:46:32;15.20;;;10.00;;
67352;SDS011;54238;52.278;21.056;2022-09-29T04:48:59;16.00;;;12.30;;
67352;SDS011;54238;52.278;21.056;2022-09-29T04:51:26;13.70;;;11.80;;
67352;SDS011;54238;52.278;21.056;2022-09-29T04:53:53;18.20;;;12.70;;
67352;SDS011;54238;52.278;21.056;2022-09-29T04:56:20;13.20;;;10.80;;
67352;SDS011;54238;52.278;21.056;2022-09-29T04:58:57;12.10;;;9.50;;
67352;SDS011;54238;52.278;21.056;2022-09-29T05:01:26;16.10;;;10.20;;
67352;SDS011;54238;52.278;21.056;2022-09-29T05:03:56;15.90;;;10.60;;
67352;SDS011;54238;52.278;21.056;2022-09-29T05:06:23;14.40;;;11.80;;
67352;SDS011;54238;52.278;21.056;2022-09-29T05:08:50;12.80;;;10.10;;
67352;SDS011;54238;52.278;21.056;2022-09-29T05:11:17;12.50;;;9.30;;
67352;SDS011;54238;52.278;21.056;2022-09-29T05:13:47;15.70;;;13.20;;
67352;SDS011;54238;52.278;21.056;2022-09-29T05:16:17;17.50;;;13.40;;
67352;SDS011;54238;52.278;21.056;2022-09-29T05:18:46;13.80;;;10.10;;
67352;SDS011;54238;52.278;21.056;2022-09-29T05:21:15;16.00;;;12.70;;
67352;SDS011;54238;52.278;21.056;2022-09-29T05:23:42;17.60;;;11.70;;
67352;SDS011;54238;52.278;21.056;2022-09-29T05:26:13;15.70;;;11.50;;
67352;SDS011;54238;52.278;21.056;2022-09-29T05:28:46;16.80;;;12.70;;
67352;SDS011;54238;52.278;21.056;2022-09-29T05:31:16;15.90;;;12.10;;
67352;SDS011;54238;52.278;21.056;2022-09-29T05:33:50;13.10;;;11.10;;
67352;SDS011;54238;52.278;21.056;2022-09-29T05:36:20;12.70;;;10.30;;
67352;SDS011;54238;52.278;21.056;2022-09-29T05:38:50;15.70;;;11.70;;
67352;SDS011;54238;52.278;21.056;2022-09-29T05:41:21;14.90;;;11.40;;
67352;SDS011;54238;52.278;21.056;2022-09-29T05:43:54;15.90;;;11.40;;
67352;SDS011;54238;52.278;21.056;2022-09-29T05:46:26;17.60;;;13.00;;
67352;SDS011;54238;52.278;21.056;2022-09-29T05:48:58;16.90;;;12.90;;
67352;SDS011;54238;52.278;21.056;2022-09-29T05:51:28;15.30;;;11.60;;
67352;SDS011;54238;52.278;21.056;2022-09-29T05:53:57;20.90;;;14.10;;
67352;SDS011;54238;52.278;21.056;2022-09-29T05:56:27;16.20;;;12.70;;
67352;SDS011;54238;52.278;21.056;2022-09-29T05:58:56;20.50;;;14.20;;
67352;SDS011;54238;52.278;21.056;2022-09-29T06:01:26;16.60;;;13.10;;
67352;SDS011;54238;52.278;21.056;2022-09-29T06:03:57;17.00;;;13.80;;
67352;SDS011;54238;52.278;21.056;2022-09-29T06:06:28;18.20;;;13.00;;
67352;SDS011;54238;52.278;21.056;2022-09-29T06:08:56;15.60;;;10.10;;
67352;SDS011;54238;52.278;21.056;2022-09-29T06:11:27;17.80;;;12.60;;
67352;SDS011;54238;52.278;21.056;2022-09-29T06:13:57;21.50;;;13.20;;
67352;SDS011;54238;52.278;21.056;2022-09-29T06:16:26;19.60;;;11.50;;
67352;SDS011;54238;52.278;21.056;2022-09-29T06:18:54;20.50;;;13.70;;
67352;SDS011;54238;52.278;21.056;2022-09-29T06:21:23;16.30;;;13.30;;
67352;SDS011;54238;52.278;21.056;2022-09-29T06:23:55;16.40;;;13.00;;
67352;SDS011;54238;52.278;21.056;2022-09-29T06:29:04;14.70;;;10.50;;
67352;SDS011;54238;52.278;21.056;2022-09-29T06:31:34;18.10;;;12.90;;
67352;SDS011;54238;52.278;21.056;2022-09-29T06:34:05;18.50;;;14.30;;
67352;SDS011;54238;52.278;21.056;2022-09-29T06:36:38;17.10;;;11.10;;
67352;SDS011;54238;52.278;21.056;2022-09-29T06:39:25;13.00;;;11.00;;
67352;SDS011;54238;52.278;21.056;2022-09-29T06:41:57;16.10;;;13.20;;
67352;SDS011;54238;52.278;21.056;2022-09-29T06:44:28;16.20;;;13.30;;
67352;SDS011;54238;52.278;21.056;2022-09-29T06:46:57;15.50;;;12.20;;
67352;SDS011;54238;52.278;21.056;2022-09-29T06:49:25;16.00;;;12.70;;
67352;SDS011;54238;52.278;21.056;2022-09-29T06:51:54;18.40;;;13.30;;
67352;SDS011;54238;52.278;21.056;2022-09-29T06:54:22;23.40;;;14.90;;
67352;SDS011;54238;52.278;21.056;2022-09-29T06:56:54;14.30;;;12.30;;
67352;SDS011;54238;52.278;21.056;2022-09-29T06:59:22;16.70;;;12.90;;
67352;SDS011;54238;52.278;21.056;2022-09-29T07:01:49;17.00;;;13.90;;
67352;SDS011;54238;52.278;21.056;2022-09-29T07:04:16;15.10;;;11.00;;
67352;SDS011;54238;52.278;21.056;2022-09-29T07:06:48;16.10;;;13.00;;
67352;SDS011;54238;52.278;21.056;2022-09-29T07:09:20;14.50;;;12.40;;
67352;SDS011;54238;52.278;21.056;2022-09-29T07:11:50;14.40;;;12.90;;
67352;SDS011;54238;52.278;21.056;2022-09-29T07:14:22;18.50;;;9.50;;
67352;SDS011;54238;52.278;21.056;2022-09-29T07:16:52;13.60;;;10.30;;
67352;SDS011;54238;52.278;21.056;2022-09-29T07:19:24;15.30;;;11.60;;
67352;SDS011;54238;52.278;21.056;2022-09-29T07:21:54;13.80;;;11.30;;
67352;SDS011;54238;52.278;21.056;2022-09-29T07:24:21;14.80;;;13.00;;
67352;SDS011;54238;52.278;21.056;2022-09-29T07:26:50;16.70;;;13.10;;
67352;SDS011;54238;52.278;21.056;2022-09-29T07:29:22;17.70;;;11.90;;
67352;SDS011;54238;52.278;21.056;2022-09-29T07:31:58;18.60;;;12.80;;
67352;SDS011;54238;52.278;21.056;2022-09-29T07:34:30;15.70;;;13.00;;
67352;SDS011;54238;52.278;21.056;2022-09-29T07:36:59;13.60;;;12.10;;
67352;SDS011;54238;52.278;21.056;2022-09-29T07:39:29;11.50;;;10.00;;
67352;SDS011;54238;52.278;21.056;2022-09-29T07:41:56;12.30;;;10.10;;
67352;SDS011;54238;52.278;21.056;2022-09-29T07:44:28;11.90;;;10.40;;
67352;SDS011;54238;52.278;21.056;2022-09-29T07:47:00;11.30;;;9.70;;
67352;SDS011;54238;52.278;21.056;2022-09-29T07:49:30;10.70;;;8.80;;
67352;SDS011;54238;52.278;21.056;2022-09-29T07:54:29;14.10;;;10.10;;
67352;SDS011;54238;52.278;21.056;2022-09-29T07:56:57;9.70;;;7.30;;
67352;SDS011;54238;52.278;21.056;2022-09-29T07:59:30;12.00;;;10.30;;
67352;SDS011;54238;52.278;21.056;2022-09-29T08:01:57;12.50;;;10.70;;
67352;SDS011;54238;52.278;21.056;2022-09-29T08:04:27;10.20;;;8.80;;
67352;SDS011;54238;52.278;21.056;2022-09-29T08:06:56;9.10;;;7.30;;
67352;SDS011;54238;52.278;21.056;2022-09-29T08:09:31;12.00;;;10.30;;
67352;SDS011;54238;52.278;21.056;2022-09-29T08:12:03;11.70;;;10.00;;
67352;SDS011;54238;52.278;21.056;2022-09-29T08:14:32;11.00;;;8.60;;
67352;SDS011;54238;52.278;21.056;2022-09-29T08:16:59;13.70;;;10.10;;
67352;SDS011;54238;52.278;21.056;2022-09-29T08:19:26;11.70;;;9.20;;
67352;SDS011;54238;52.278;21.056;2022-09-29T08:21:56;11.40;;;9.20;;
67352;SDS011;54238;52.278;21.056;2022-09-29T08:24:28;11.40;;;8.90;;
67352;SDS011;54238;52.278;21.056;2022-09-29T08:26:57;8.90;;;7.90;;
67352;SDS011;54238;52.278;21.056;2022-09-29T08:29:24;9.60;;;8.60;;
67352;SDS011;54238;52.278;21.056;2022-09-29T08:31:53;11.60;;;9.10;;
67352;SDS011;54238;52.278;21.056;2022-09-29T08:34:24;10.50;;;8.80;;
67352;SDS011;54238;52.278;21.056;2022-09-29T08:36:54;10.30;;;7.90;;
67352;SDS011;54238;52.278;21.056;2022-09-29T08:39:25;10.70;;;8.00;;
67352;SDS011;54238;52.278;21.056;2022-09-29T08:41:58;8.90;;;8.00;;
67352;SDS011;54238;52.278;21.056;2022-09-29T08:47:29;9.00;;;7.40;;
67352;SDS011;54238;52.278;21.056;2022-09-29T08:52:43;9.00;;;6.70;;
67352;SDS011;54238;52.278;21.056;2022-09-29T08:57:56;10.00;;;7.00;;
67352;SDS011;54238;52.278;21.056;2022-09-29T09:00:33;9.50;;;7.90;;
67352;SDS011;54238;52.278;21.056;2022-09-29T09:03:18;9.60;;;6.70;;
67352;SDS011;54238;52.278;21.056;2022-09-29T09:06:43;9.70;;;6.50;;
67352;SDS011;54238;52.278;21.056;2022-09-29T09:20:47;8.70;;;5.60;;
67352;SDS011;54238;52.278;21.056;2022-09-29T09:23:41;9.30;;;6.50;;
67352;SDS011;54238;52.278;21.056;2022-09-29T09:26:13;7.50;;;5.70;;
67352;SDS011;54238;52.278;21.056;2022-09-29T09:28:57;6.70;;;5.90;;
67352;SDS011;54238;52.278;21.056;2022-09-29T09:31:42;6.20;;;5.50;;
67352;SDS011;54238;52.278;21.056;2022-09-29T09:34:27;9.20;;;6.40;;
67352;SDS011;54238;52.278;21.056;2022-09-29T09:37:09;9.60;;;6.20;;
67352;SDS011;54238;52.278;21.056;2022-09-29T09:42:27;9.30;;;6.50;;
67352;SDS011;54238;52.278;21.056;2022-09-29T09:45:03;6.80;;;6.10;;
67352;SDS011;54238;52.278;21.056;2022-09-29T09:47:49;10.00;;;6.40;;
67352;SDS011;54238;52.278;21.056;2022-09-29T09:50:22;9.40;;;6.40;;
67352;SDS011;54238;52.278;21.056;2022-09-29T09:53:01;7.40;;;6.50;;
67352;SDS011;54238;52.278;21.056;2022-09-29T09:55:37;10.30;;;7.20;;
67352;SDS011;54238;52.278;21.056;2022-09-29T09:58:47;7.60;;;6.60;;
67352;SDS011;54238;52.278;21.056;2022-09-29T10:01:18;12.70;;;7.50;;
67352;SDS011;54238;52.278;21.056;2022-09-29T10:03:45;11.20;;;8.00;;
67352;SDS011;54238;52.278;21.056;2022-09-29T10:06:14;11.10;;;7.30;;
67352;SDS011;54238;52.278;21.056;2022-09-29T10:08:41;7.20;;;6.50;;
67352;SDS011;54238;52.278;21.056;2022-09-29T10:13:49;8.20;;;6.70;;
67352;SDS011;54238;52.278;21.056;2022-09-29T10:16:31;7.50;;;5.10;;
67352;SDS011;54238;52.278;21.056;2022-09-29T10:19:01;8.80;;;6.00;;
67352;SDS011;54238;52.278;21.056;2022-09-29T10:21:37;9.50;;;6.40;;
67352;SDS011;54238;52.278;21.056;2022-09-29T10:24:29;8.80;;;6.10;;
67352;SDS011;54238;52.278;21.056;2022-09-29T10:26:59;7.60;;;6.80;;
67352;SDS011;54238;52.278;21.056;2022-09-29T10:37:37;8.40;;;7.30;;
67352;SDS011;54238;52.278;21.056;2022-09-29T10:42:44;7.00;;;5.60;;
67352;SDS011;54238;52.278;21.056;2022-09-29T10:53:35;12.10;;;8.30;;
67352;SDS011;54238;52.278;21.056;2022-09-29T10:56:19;8.30;;;7.50;;
67352;SDS011;54238;52.278;21.056;2022-09-29T10:58:57;9.70;;;8.70;;
67352;SDS011;54238;52.278;21.056;2022-09-29T11:01:33;10.50;;;9.30;;
67352;SDS011;54238;52.278;21.056;2022-09-29T11:06:50;8.70;;;7.80;;
67352;SDS011;54238;52.278;21.056;2022-09-29T11:14:42;12.50;;;9.30;;
67352;SDS011;54238;52.278;21.056;2022-09-29T11:17:31;11.30;;;9.00;;
67352;SDS011;54238;52.278;21.056;2022-09-29T11:20:11;10.70;;;8.00;;
67352;SDS011;54238;52.278;21.056;2022-09-29T11:22:57;11.40;;;8.20;;
67352;SDS011;54238;52.278;21.056;2022-09-29T11:25:45;9.20;;;8.30;;
67352;SDS011;54238;52.278;21.056;2022-09-29T11:31:22;11.30;;;8.10;;
67352;SDS011;54238;52.278;21.056;2022-09-29T11:40:19;8.80;;;7.90;;
67352;SDS011;54238;52.278;21.056;2022-09-29T11:52:21;10.80;;;8.80;;
67352;SDS011;54238;52.278;21.056;2022-09-29T11:58:17;13.10;;;10.20;;
67352;SDS011;54238;52.278;21.056;2022-09-29T12:01:27;9.10;;;8.10;;
67352;SDS011;54238;52.278;21.056;2022-09-29T12:10:31;14.10;;;7.60;;
67352;SDS011;54238;52.278;21.056;2022-09-29T12:16:14;8.70;;;6.90;;
67352;SDS011;54238;52.278;21.056;2022-09-29T12:21:45;7.20;;;6.30;;
67352;SDS011;54238;52.278;21.056;2022-09-29T12:27:39;8.00;;;7.20;;
67352;SDS011;54238;52.278;21.056;2022-09-29T12:30:26;11.20;;;6.70;;
67352;SDS011;54238;52.278;21.056;2022-09-29T12:33:04;7.30;;;6.30;;
67352;SDS011;54238;52.278;21.056;2022-09-29T12:38:36;6.30;;;5.20;;
67352;SDS011;54238;52.278;21.056;2022-09-29T12:41:23;6.70;;;6.00;;
67352;SDS011;54238;52.278;21.056;2022-09-29T12:44:42;7.30;;;6.20;;
67352;SDS011;54238;52.278;21.056;2022-09-29T12:47:20;7.10;;;6.30;;
67352;SDS011;54238;52.278;21.056;2022-09-29T12:50:04;7.80;;;6.10;;
67352;SDS011;54238;52.278;21.056;2022-09-29T12:52:57;7.00;;;6.30;;
67352;SDS011;54238;52.278;21.056;2022-09-29T12:55:50;6.60;;;6.00;;
67352;SDS011;54238;52.278;21.056;2022-09-29T12:58:30;7.90;;;6.50;;
67352;SDS011;54238;52.278;21.056;2022-09-29T13:07:15;8.00;;;7.10;;
67352;SDS011;54238;52.278;21.056;2022-09-29T13:25:35;8.30;;;7.40;;
67352;SDS011;54238;52.278;21.056;2022-09-29T13:31:22;9.60;;;8.20;;
67352;SDS011;54238;52.278;21.056;2022-09-29T13:33:58;7.40;;;6.30;;
67352;SDS011;54238;52.278;21.056;2022-09-29T13:36:36;8.60;;;7.60;;
67352;SDS011;54238;52.278;21.056;2022-09-29T13:39:20;8.70;;;6.60;;
67352;SDS011;54238;52.278;21.056;2022-09-29T13:41:52;8.30;;;6.40;;
67352;SDS011;54238;52.278;21.056;2022-09-29T13:44:25;6.50;;;5.80;;
67352;SDS011;54238;52.278;21.056;2022-09-29T13:47:33;9.80;;;6.50;;
67352;SDS011;54238;52.278;21.056;2022-09-29T13:58:32;9.60;;;7.40;;
67352;SDS011;54238;52.278;21.056;2022-09-29T14:01:05;10.30;;;7.00;;
67352;SDS011;54238;52.278;21.056;2022-09-29T14:06:06;13.40;;;7.90;;
67352;SDS011;54238;52.278;21.056;2022-09-29T14:11:33;9.40;;;8.50;;
67352;SDS011;54238;52.278;21.056;2022-09-29T14:17:28;12.30;;;9.50;;
67352;SDS011;54238;52.278;21.056;2022-09-29T14:20:25;8.80;;;7.60;;
67352;SDS011;54238;52.278;21.056;2022-09-29T14:23:05;10.60;;;8.20;;
67352;SDS011;54238;52.278;21.056;2022-09-29T14:28:09;10.40;;;8.30;;
67352;SDS011;54238;52.278;21.056;2022-09-29T14:30:50;8.80;;;7.60;;
67352;SDS011;54238;52.278;21.056;2022-09-29T14:33:29;8.80;;;7.60;;
67352;SDS011;54238;52.278;21.056;2022-09-29T14:36:11;12.30;;;8.50;;
67352;SDS011;54238;52.278;21.056;2022-09-29T14:38:44;8.70;;;7.70;;
67352;SDS011;54238;52.278;21.056;2022-09-29T14:44:07;7.60;;;6.90;;
67352;SDS011;54238;52.278;21.056;2022-09-29T14:56:51;8.80;;;7.90;;
67352;SDS011;54238;52.278;21.056;2022-09-29T15:04:45;11.10;;;7.20;;
67352;SDS011;54238;52.278;21.056;2022-09-29T15:07:18;10.40;;;8.30;;
67352;SDS011;54238;52.278;21.056;2022-09-29T15:09:56;9.50;;;7.60;;
67352;SDS011;54238;52.278;21.056;2022-09-29T15:12:30;9.30;;;8.40;;
67352;SDS011;54238;52.278;21.056;2022-09-29T15:15:01;9.20;;;8.30;;
67352;SDS011;54238;52.278;21.056;2022-09-29T15:20:32;8.70;;;7.80;;
67352;SDS011;54238;52.278;21.056;2022-09-29T15:26:16;11.60;;;8.10;;
67352;SDS011;54238;52.278;21.056;2022-09-29T15:28:46;8.80;;;7.80;;
67352;SDS011;54238;52.278;21.056;2022-09-29T15:31:18;11.00;;;7.40;;
67352;SDS011;54238;52.278;21.056;2022-09-29T15:33:52;9.70;;;7.20;;
67352;SDS011;54238;52.278;21.056;2022-09-29T15:36:26;9.70;;;8.00;;
67352;SDS011;54238;52.278;21.056;2022-09-29T15:42:12;9.00;;;8.10;;
67352;SDS011;54238;52.278;21.056;2022-09-29T15:45:08;8.70;;;7.80;;
67352;SDS011;54238;52.278;21.056;2022-09-29T15:47:42;7.90;;;7.10;;
67352;SDS011;54238;52.278;21.056;2022-09-29T15:50:18;9.10;;;8.10;;
67352;SDS011;54238;52.278;21.056;2022-09-29T15:52:50;9.30;;;8.20;;
67352;SDS011;54238;52.278;21.056;2022-09-29T15:55:27;12.60;;;9.00;;
67352;SDS011;54238;52.278;21.056;2022-09-29T15:57:59;10.40;;;9.40;;
67352;SDS011;54238;52.278;21.056;2022-09-29T16:08:30;13.80;;;10.30;;
67352;SDS011;54238;52.278;21.056;2022-09-29T16:11:07;10.60;;;9.50;;
67352;SDS011;54238;52.278;21.056;2022-09-29T16:13:57;13.00;;;10.40;;
67352;SDS011;54238;52.278;21.056;2022-09-29T16:16:33;15.90;;;11.60;;
67352;SDS011;54238;52.278;21.056;2022-09-29T16:19:15;17.50;;;11.20;;
67352;SDS011;54238;52.278;21.056;2022-09-29T16:21:57;12.70;;;10.60;;
67352;SDS011;54238;52.278;21.056;2022-09-29T16:24:29;12.20;;;10.60;;
67352;SDS011;54238;52.278;21.056;2022-09-29T16:27:02;17.20;;;12.10;;
67352;SDS011;54238;52.278;21.056;2022-09-29T16:29:35;12.30;;;10.90;;
67352;SDS011;54238;52.278;21.056;2022-09-29T16:40:52;15.70;;;11.90;;
67352;SDS011;54238;52.278;21.056;2022-09-29T16:43:29;17.50;;;11.10;;
67352;SDS011;54238;52.278;21.056;2022-09-29T16:45:58;14.50;;;10.70;;
67352;SDS011;54238;52.278;21.056;2022-09-29T16:48:43;11.60;;;10.20;;
67352;SDS011;54238;52.278;21.056;2022-09-29T16:51:20;15.20;;;11.10;;
67352;SDS011;54238;52.278;21.056;2022-09-29T16:53:50;18.90;;;13.30;;
67352;SDS011;54238;52.278;21.056;2022-09-29T16:56:25;35.50;;;15.20;;
67352;SDS011;54238;52.278;21.056;2022-09-29T17:01:40;58.80;;;17.20;;
67352;SDS011;54238;52.278;21.056;2022-09-29T17:04:10;40.50;;;16.10;;
67352;SDS011;54238;52.278;21.056;2022-09-29T17:06:48;27.60;;;14.30;;
67352;SDS011;54238;52.278;21.056;2022-09-29T17:09:25;31.20;;;14.60;;
67352;SDS011;54238;52.278;21.056;2022-09-29T17:11:54;33.30;;;16.10;;
67352;SDS011;54238;52.278;21.056;2022-09-29T17:14:23;18.90;;;12.90;;
67352;SDS011;54238;52.278;21.056;2022-09-29T17:16:58;22.10;;;13.50;;
67352;SDS011;54238;52.278;21.056;2022-09-29T17:19:27;18.30;;;12.80;;
67352;SDS011;54238;52.278;21.056;2022-09-29T17:21:57;23.90;;;13.60;;
67352;SDS011;54238;52.278;21.056;2022-09-29T17:24:28;21.10;;;13.40;;
67352;SDS011;54238;52.278;21.056;2022-09-29T17:26:56;17.80;;;13.60;;
67352;SDS011;54238;52.278;21.056;2022-09-29T17:29:44;21.70;;;13.50;;
67352;SDS011;54238;52.278;21.056;2022-09-29T17:32:13;19.90;;;15.00;;
67352;SDS011;54238;52.278;21.056;2022-09-29T17:34:41;21.50;;;14.90;;
67352;SDS011;54238;52.278;21.056;2022-09-29T17:37:10;20.00;;;14.40;;
67352;SDS011;54238;52.278;21.056;2022-09-29T17:39:37;33.10;;;19.40;;
67352;SDS011;54238;52.278;21.056;2022-09-29T17:42:06;39.40;;;21.20;;
67352;SDS011;54238;52.278;21.056;2022-09-29T17:44:33;32.80;;;21.70;;
67352;SDS011;54238;52.278;21.056;2022-09-29T17:47:08;36.80;;;22.40;;
67352;SDS011;54238;52.278;21.056;2022-09-29T17:49:44;41.80;;;26.50;;
67352;SDS011;54238;52.278;21.056;2022-09-29T17:52:18;36.50;;;25.10;;
67352;SDS011;54238;52.278;21.056;2022-09-29T17:54:47;39.70;;;24.80;;
67352;SDS011;54238;52.278;21.056;2022-09-29T17:57:24;29.80;;;20.80;;
67352;SDS011;54238;52.278;21.056;2022-09-29T18:00:00;42.50;;;22.50;;
67352;SDS011;54238;52.278;21.056;2022-09-29T18:02:35;33.40;;;21.30;;
67352;SDS011;54238;52.278;21.056;2022-09-29T18:05:07;33.60;;;20.80;;
67352;SDS011;54238;52.278;21.056;2022-09-29T18:07:38;32.50;;;22.20;;
67352;SDS011;54238;52.278;21.056;2022-09-29T18:13:02;32.60;;;21.40;;
67352;SDS011;54238;52.278;21.056;2022-09-29T18:15:35;41.10;;;25.20;;
67352;SDS011;54238;52.278;21.056;2022-09-29T18:18:07;31.50;;;22.60;;
67352;SDS011;54238;52.278;21.056;2022-09-29T18:20:37;38.40;;;25.90;;
67352;SDS011;54238;52.278;21.056;2022-09-29T18:23:08;34.90;;;23.50;;
67352;SDS011;54238;52.278;21.056;2022-09-29T18:25:37;49.20;;;26.40;;
67352;SDS011;54238;52.278;21.056;2022-09-29T18:28:04;47.80;;;28.70;;
67352;SDS011;54238;52.278;21.056;2022-09-29T18:30:33;36.50;;;25.60;;
67352;SDS011;54238;52.278;21.056;2022-09-29T18:33:10;41.00;;;27.50;;
67352;SDS011;54238;52.278;21.056;2022-09-29T18:35:43;38.80;;;24.10;;
67352;SDS011;54238;52.278;21.056;2022-09-29T18:38:14;32.70;;;23.50;;
67352;SDS011;54238;52.278;21.056;2022-09-29T18:40:46;42.50;;;26.30;;
67352;SDS011;54238;52.278;21.056;2022-09-29T18:43:13;42.30;;;26.80;;
67352;SDS011;54238;52.278;21.056;2022-09-29T18:45:47;47.40;;;28.50;;
67352;SDS011;54238;52.278;21.056;2022-09-29T18:48:17;47.30;;;27.30;;
67352;SDS011;54238;52.278;21.056;2022-09-29T18:50:48;41.80;;;27.70;;
67352;SDS011;54238;52.278;21.056;2022-09-29T18:53:19;46.20;;;26.90;;